CRL4 weather

Kirby Lake Airport
Kirby Lake, Alberta, Canada

Public forecast

Using degrees Celsius for public forecast. Weather courtesy of forecast.io.

METAR (pilot weather report)

Closest report is CFB Cold Lake, 58.4 nm (108.2 km) SSE. Retrieved 2019/04/23 23:00 UTC (52 minutes ago):

CYOD 232300Z 27015G24KT 15SM FEW070 15/M04 A2971 RMK CU1 SLP074

TAF (pilot weather forecast)

Closest forecast is CFB Cold Lake, 58.4 nm (108.2 km) SSE. Retrieved 2019/04/23 18:35 UTC (5 hours ago):

TAF CYOD 231730Z 2318/2418 29015G25KT P6SM FEW050 FEW110 SCT250 BECMG 2404/2406 29012KT RMK NXT FCST BY 232100Z